createdAt,value
2018-04-08T00:00:55.867Z,11.80
2018-04-08T00:01:58.384Z,11.80
2018-04-08T00:03:00.897Z,11.80
2018-04-08T00:04:04.152Z,11.80
2018-04-08T00:05:07.419Z,11.80
2018-04-08T00:06:09.960Z,11.80
2018-04-08T00:07:12.468Z,11.80
2018-04-08T00:08:14.981Z,11.80
2018-04-08T00:09:18.252Z,11.80
2018-04-08T00:10:20.754Z,11.80
2018-04-08T00:11:23.269Z,11.80
2018-04-08T00:12:25.773Z,11.90
2018-04-08T00:13:29.098Z,12.00
2018-04-08T00:14:31.579Z,11.90
2018-04-08T00:15:34.070Z,12.00
2018-04-08T00:16:36.572Z,12.00
2018-04-08T00:17:39.840Z,12.10
2018-04-08T00:18:42.362Z,12.00
2018-04-08T00:19:44.874Z,12.10
2018-04-08T00:20:47.376Z,12.10
2018-04-08T00:21:50.686Z,12.10
2018-04-08T00:22:53.207Z,12.10
2018-04-08T00:23:55.755Z,12.10
2018-04-08T00:24:58.251Z,12.10
2018-04-08T00:26:00.772Z,12.20
2018-04-08T00:27:03.271Z,12.20
2018-04-08T00:28:05.777Z,12.20
2018-04-08T00:29:08.287Z,12.10
2018-04-08T00:30:10.820Z,12.10
2018-04-08T00:31:13.324Z,12.00
2018-04-08T00:32:15.830Z,12.00
2018-04-08T00:33:18.350Z,12.00
2018-04-08T00:34:21.623Z,11.90
2018-04-08T00:35:24.871Z,11.80
2018-04-08T00:36:27.375Z,11.80
2018-04-08T00:37:29.887Z,11.80
2018-04-08T00:38:32.384Z,11.70
2018-04-08T00:39:34.892Z,11.70
2018-04-08T00:40:38.149Z,11.70
2018-04-08T00:41:40.646Z,11.70
2018-04-08T00:42:43.911Z,11.70
2018-04-08T00:43:46.423Z,11.70
2018-04-08T00:44:49.711Z,11.60
2018-04-08T00:45:52.977Z,11.60
2018-04-08T00:46:55.471Z,11.60
2018-04-08T00:47:57.956Z,11.50
2018-04-08T00:49:00.455Z,11.40
2018-04-08T00:50:02.964Z,11.40
2018-04-08T00:51:06.230Z,11.20
2018-04-08T00:52:08.738Z,11.20
2018-04-08T00:53:11.320Z,11.20
2018-04-08T00:54:26.084Z,11.20
2018-04-08T00:55:28.596Z,11.10
2018-04-08T00:56:31.093Z,11.10
2018-04-08T00:57:34.355Z,11.10
2018-04-08T00:58:36.876Z,11.10
2018-04-08T00:59:39.395Z,11.10
2018-04-08T01:00:41.899Z,11.10
2018-04-08T01:01:45.161Z,11.20
2018-04-08T01:02:47.659Z,11.20
2018-04-08T01:03:50.945Z,11.20
2018-04-08T01:04:54.213Z,11.20
2018-04-08T01:05:56.709Z,11.20
2018-04-08T01:06:59.991Z,11.20
2018-04-08T01:08:03.247Z,11.20
2018-04-08T01:09:06.585Z,11.20
2018-04-08T01:10:09.125Z,11.20
2018-04-08T01:11:11.743Z,11.20
2018-04-08T01:12:14.242Z,11.10
2018-04-08T01:13:16.760Z,11.20
2018-04-08T01:14:20.030Z,11.20
2018-04-08T01:15:22.551Z,11.20
2018-04-08T01:16:25.047Z,11.20
2018-04-08T01:17:27.554Z,11.20
2018-04-08T01:18:30.839Z,11.20
2018-04-08T01:19:34.123Z,11.20
2018-04-08T01:20:37.430Z,11.20
2018-04-08T01:21:39.948Z,11.20
2018-04-08T01:22:42.463Z,11.20
2018-04-08T01:23:45.727Z,11.20
2018-04-08T01:24:48.217Z,11.20
2018-04-08T01:25:51.482Z,11.30
2018-04-08T01:26:53.990Z,11.20
2018-04-08T01:27:56.503Z,11.30
2018-04-08T01:28:59.010Z,11.30
2018-04-08T01:30:02.275Z,11.30
2018-04-08T01:31:06.297Z,11.20
2018-04-08T01:32:08.796Z,11.20
2018-04-08T01:33:11.322Z,11.20
2018-04-08T01:34:13.830Z,11.20
2018-04-08T01:35:17.099Z,11.10
2018-04-08T01:36:20.361Z,11.00
2018-04-08T01:37:22.866Z,11.00
2018-04-08T01:38:26.136Z,10.90
2018-04-08T01:39:28.636Z,10.90
2018-04-08T01:40:31.137Z,10.80
2018-04-08T01:41:33.659Z,10.80
2018-04-08T01:42:36.156Z,10.80
2018-04-08T01:43:38.658Z,10.70
2018-04-08T01:44:41.146Z,10.70
2018-04-08T01:45:43.634Z,10.70
2018-04-08T01:46:46.143Z,10.70
2018-04-08T01:47:48.662Z,10.60
2018-04-08T01:48:51.155Z,10.60
2018-04-08T01:49:54.462Z,10.60
2018-04-08T01:50:56.981Z,10.70
2018-04-08T01:51:59.485Z,10.80
2018-04-08T01:53:02.735Z,11.00
2018-04-08T01:54:05.237Z,11.00
2018-04-08T01:55:08.490Z,11.10
2018-04-08T01:56:10.985Z,11.10
2018-04-08T01:57:13.482Z,11.20
2018-04-08T01:58:15.983Z,11.20
2018-04-08T01:59:18.489Z,11.30
2018-04-08T02:00:20.976Z,11.30
2018-04-08T02:01:24.252Z,11.40
2018-04-08T02:02:26.767Z,11.30
2018-04-08T02:03:29.265Z,11.30
2018-04-08T02:04:31.778Z,11.30
2018-04-08T02:05:35.088Z,11.30
2018-04-08T02:06:37.586Z,11.20
2018-04-08T02:07:40.137Z,11.30
2018-04-08T02:08:42.655Z,11.20
2018-04-08T02:09:45.169Z,11.20
2018-04-08T02:10:47.670Z,11.20
2018-04-08T02:11:50.168Z,11.30
2018-04-08T02:12:52.669Z,11.20
2018-04-08T02:13:55.987Z,11.20
2018-04-08T02:14:58.487Z,11.20
2018-04-08T02:16:00.988Z,11.20
2018-04-08T02:17:04.297Z,11.30
2018-04-08T02:18:06.803Z,11.20
2018-04-08T02:19:09.303Z,11.30
2018-04-08T02:20:12.585Z,11.30
2018-04-08T02:21:15.098Z,11.30
2018-04-08T02:22:17.588Z,11.30
2018-04-08T02:23:20.096Z,11.30
2018-04-08T02:24:22.590Z,11.30
2018-04-08T02:25:25.848Z,11.30
2018-04-08T02:26:28.362Z,11.30
2018-04-08T02:27:30.862Z,11.30
2018-04-08T02:28:33.370Z,11.20
2018-04-08T02:29:35.981Z,11.20
2018-04-08T02:30:38.499Z,11.30
2018-04-08T02:31:41.024Z,11.20
2018-04-08T02:32:43.513Z,11.20
2018-04-08T02:33:46.007Z,11.30
2018-04-08T02:34:48.497Z,11.30
2018-04-08T02:35:51.012Z,11.20
2018-04-08T02:36:53.505Z,11.20
2018-04-08T02:37:55.990Z,11.10
2018-04-08T02:38:58.485Z,11.10
2018-04-08T02:40:01.762Z,11.00
2018-04-08T02:41:04.269Z,11.00
2018-04-08T02:42:06.769Z,11.00
2018-04-08T02:43:09.259Z,10.90
2018-04-08T02:44:11.751Z,10.90
2018-04-08T02:45:15.026Z,10.80
2018-04-08T02:46:18.311Z,10.80
2018-04-08T02:47:21.575Z,10.70
2018-04-08T02:48:24.081Z,10.70
2018-04-08T02:49:26.582Z,10.70
2018-04-08T02:50:29.076Z,10.70
2018-04-08T02:51:31.593Z,10.60
2018-04-08T02:52:34.089Z,10.60
2018-04-08T02:53:36.595Z,10.60
2018-04-08T02:54:39.097Z,10.60
2018-04-08T02:55:41.610Z,10.60
2018-04-08T02:56:44.120Z,10.60
2018-04-08T02:57:46.620Z,10.60
2018-04-08T02:58:49.991Z,10.60
2018-04-08T02:59:53.251Z,10.60
2018-04-08T03:00:55.775Z,10.60
2018-04-08T03:01:59.050Z,10.50
2018-04-08T03:03:01.657Z,10.50
2018-04-08T03:04:04.171Z,10.50
2018-04-08T03:05:06.664Z,10.60
2018-04-08T03:06:09.186Z,10.60
2018-04-08T03:07:11.706Z,10.50
2018-04-08T03:08:14.201Z,10.50
2018-04-08T03:09:17.471Z,10.50
2018-04-08T03:10:19.958Z,10.50
2018-04-08T03:11:22.462Z,10.50
2018-04-08T03:12:24.970Z,10.50
2018-04-08T03:13:27.465Z,10.50
2018-04-08T03:14:30.733Z,10.60
2018-04-08T03:15:33.228Z,10.50
2018-04-08T03:16:35.720Z,10.60
2018-04-08T03:17:38.230Z,10.60
2018-04-08T03:18:40.726Z,10.60
2018-04-08T03:19:43.986Z,10.60
2018-04-08T03:20:46.478Z,10.60
2018-04-08T03:21:49.752Z,10.70
2018-04-08T03:22:52.255Z,10.60
2018-04-08T03:23:55.513Z,10.70
2018-04-08T03:24:58.017Z,10.70
2018-04-08T03:26:00.537Z,10.80
2018-04-08T03:27:03.019Z,10.80
2018-04-08T03:28:07.026Z,10.80
2018-04-08T03:29:09.525Z,10.80
2018-04-08T03:30:12.828Z,10.90
2018-04-08T03:31:15.327Z,10.90
2018-04-08T03:32:17.841Z,10.80
2018-04-08T03:33:21.113Z,10.80
2018-04-08T03:34:23.599Z,10.80
2018-04-08T03:35:26.094Z,10.80
2018-04-08T03:36:28.609Z,10.80
2018-04-08T03:37:31.102Z,10.70
2018-04-08T03:38:34.380Z,10.80
2018-04-08T03:39:36.872Z,10.80
2018-04-08T03:40:40.138Z,10.70
2018-04-08T03:41:42.639Z,10.70
2018-04-08T03:42:45.894Z,10.70
2018-04-08T03:43:48.520Z,10.70
2018-04-08T03:44:51.026Z,10.70
2018-04-08T03:45:53.518Z,10.70
2018-04-08T03:46:56.019Z,10.70
2018-04-08T03:47:58.525Z,10.70
2018-04-08T03:49:01.025Z,10.70
2018-04-08T03:50:03.538Z,10.70
2018-04-08T03:51:06.042Z,10.70
2018-04-08T03:52:08.536Z,10.80
2018-04-08T03:53:11.046Z,10.80
2018-04-08T03:54:13.560Z,10.80
2018-04-08T03:55:16.051Z,10.90
2018-04-08T03:56:18.535Z,10.90
2018-04-08T03:57:21.839Z,10.90
2018-04-08T03:58:24.347Z,10.90
2018-04-08T03:59:26.844Z,11.00
2018-04-08T04:00:29.340Z,11.00
2018-04-08T04:01:32.598Z,11.00
2018-04-08T04:02:35.870Z,11.00
2018-04-08T04:03:38.375Z,11.10
2018-04-08T04:04:41.661Z,11.20
2018-04-08T04:05:44.927Z,11.10
2018-04-08T04:06:47.434Z,11.10
2018-04-08T04:07:50.704Z,11.10
2018-04-08T04:08:53.202Z,11.10
2018-04-08T04:09:55.698Z,11.20
2018-04-08T04:10:58.198Z,11.20
2018-04-08T04:12:00.704Z,11.10
2018-04-08T04:13:03.957Z,11.10
2018-04-08T04:14:07.215Z,11.10
2018-04-08T04:15:09.861Z,11.00
2018-04-08T04:16:12.470Z,11.10
2018-04-08T04:17:14.978Z,11.00
2018-04-08T04:20:04.594Z,11.00
2018-04-08T04:21:19.087Z,10.90
2018-04-08T04:22:33.497Z,10.90
2018-04-08T04:23:47.996Z,10.90
2018-04-08T04:25:02.602Z,10.90
2018-04-08T04:26:17.019Z,10.90
2018-04-08T04:27:19.521Z,10.90
2018-04-08T04:28:22.014Z,10.90
2018-04-08T04:29:24.502Z,10.90
2018-04-08T04:30:27.019Z,10.90
2018-04-08T04:31:30.290Z,10.90
2018-04-08T04:32:32.790Z,10.80
2018-04-08T04:33:35.295Z,10.80
2018-04-08T04:34:37.823Z,10.80
2018-04-08T04:35:41.103Z,10.80
2018-04-08T04:36:44.371Z,10.80
2018-04-08T04:37:46.902Z,10.80
2018-04-08T04:38:49.386Z,10.90
2018-04-08T04:39:51.900Z,10.80
2018-04-08T04:40:55.149Z,10.90
2018-04-08T04:41:57.643Z,10.90
2018-04-08T04:43:00.140Z,10.90
2018-04-08T04:44:02.643Z,10.90
2018-04-08T04:45:05.158Z,10.90
2018-04-08T04:46:07.661Z,10.90
2018-04-08T04:47:10.361Z,10.90
2018-04-08T04:48:12.917Z,10.90
2018-04-08T04:49:15.416Z,11.00
2018-04-08T04:50:17.921Z,10.90
2018-04-08T04:51:21.192Z,11.00
2018-04-08T04:52:23.682Z,11.00
2018-04-08T04:53:26.933Z,11.00
2018-04-08T04:54:29.427Z,11.00
2018-04-08T04:55:31.929Z,11.00
2018-04-08T04:56:34.427Z,11.00
2018-04-08T04:57:36.945Z,11.10
2018-04-08T04:58:40.204Z,11.00
2018-04-08T04:59:42.707Z,11.10
2018-04-08T05:00:46.019Z,11.10
2018-04-08T05:01:48.530Z,11.10
2018-04-08T05:02:51.032Z,11.10
2018-04-08T05:03:53.513Z,11.10
2018-04-08T05:04:56.775Z,11.20
2018-04-08T05:05:59.444Z,11.20
2018-04-08T05:07:01.964Z,11.30
2018-04-08T05:08:04.472Z,11.30
2018-04-08T05:09:06.968Z,11.30
2018-04-08T05:10:09.606Z,11.40
2018-04-08T05:11:12.351Z,11.40
2018-04-08T05:12:14.851Z,11.50
2018-04-08T05:13:17.346Z,11.50
2018-04-08T05:14:19.862Z,11.60
2018-04-08T05:15:22.351Z,11.70
2018-04-08T05:16:24.870Z,11.80
2018-04-08T05:17:28.146Z,11.80
2018-04-08T05:18:30.648Z,11.80
2018-04-08T05:19:33.152Z,11.90
2018-04-08T05:20:35.677Z,12.00
2018-04-08T05:21:38.952Z,12.20
2018-04-08T05:22:41.487Z,12.20
2018-04-08T05:23:44.001Z,12.30
2018-04-08T05:24:46.490Z,12.50
2018-04-08T05:25:49.786Z,12.60
2018-04-08T05:26:52.278Z,12.50
2018-04-08T05:27:54.796Z,12.60
2018-04-08T05:28:57.286Z,12.70
2018-04-08T05:29:59.830Z,12.70
2018-04-08T05:31:02.319Z,12.80
2018-04-08T05:32:05.607Z,13.00
2018-04-08T05:33:08.869Z,13.10
2018-04-08T05:34:11.378Z,13.00
2018-04-08T05:35:13.950Z,13.20
2018-04-08T05:36:16.443Z,13.30
2018-04-08T05:37:18.949Z,13.40
2018-04-08T05:38:21.458Z,13.50
2018-04-08T05:39:24.720Z,13.70
2018-04-08T05:40:27.214Z,13.60
2018-04-08T05:41:30.472Z,13.90
2018-04-08T05:42:32.968Z,13.90
2018-04-08T05:43:36.239Z,14.30
2018-04-08T05:44:38.731Z,14.20
2018-04-08T05:45:41.240Z,14.40
2018-04-08T05:46:43.756Z,14.50
2018-04-08T05:47:47.013Z,14.80
2018-04-08T05:48:49.530Z,14.80
2018-04-08T05:49:52.074Z,15.00
2018-04-08T05:50:54.570Z,15.20
2018-04-08T05:51:57.063Z,15.40
2018-04-08T05:52:59.555Z,15.50
2018-04-08T05:54:02.073Z,15.60
2018-04-08T05:55:05.346Z,15.80
2018-04-08T05:56:07.849Z,15.70
2018-04-08T05:57:10.536Z,15.80
2018-04-08T05:58:13.108Z,15.60
2018-04-08T05:59:15.631Z,15.60
2018-04-08T06:00:18.138Z,15.70
2018-04-08T06:01:20.653Z,15.50
2018-04-08T06:02:23.154Z,15.40
2018-04-08T06:03:26.425Z,15.40
2018-04-08T06:04:28.931Z,15.40
2018-04-08T06:05:31.426Z,15.30
2018-04-08T06:06:33.915Z,15.20
2018-04-08T06:07:36.408Z,15.00
2018-04-08T06:08:38.907Z,14.90
2018-04-08T06:09:42.198Z,14.90
2018-04-08T06:10:44.742Z,14.90
2018-04-08T06:11:48.005Z,14.90
2018-04-08T06:12:50.494Z,14.90
2018-04-08T06:13:52.990Z,14.80
2018-04-08T06:14:56.251Z,14.80
2018-04-08T06:15:58.744Z,14.80
2018-04-08T06:17:02.033Z,14.80
2018-04-08T06:18:05.312Z,14.90
2018-04-08T06:19:08.580Z,14.80
2018-04-08T06:20:11.212Z,14.80
2018-04-08T06:21:13.749Z,14.80
2018-04-08T06:22:16.285Z,14.80
2018-04-08T06:23:18.780Z,14.70
2018-04-08T06:24:22.040Z,14.80
2018-04-08T06:25:24.546Z,14.70
2018-04-08T06:26:27.863Z,14.80
2018-04-08T06:27:30.408Z,14.80
2018-04-08T06:28:33.672Z,14.70
2018-04-08T06:29:36.165Z,14.70
2018-04-08T06:30:39.442Z,14.70
2018-04-08T06:41:26.976Z,14.70
2018-04-08T06:42:29.470Z,15.10
2018-04-08T06:43:32.023Z,15.10
2018-04-08T06:44:34.507Z,15.20
2018-04-08T06:45:37.018Z,15.20
2018-04-08T06:46:39.549Z,15.20
2018-04-08T06:47:42.063Z,15.10
2018-04-08T06:48:44.585Z,15.10
2018-04-08T06:49:47.095Z,15.10
2018-04-08T06:50:49.599Z,15.10
2018-04-08T06:51:52.113Z,15.20
2018-04-08T06:52:54.615Z,15.10
2018-04-08T06:53:57.101Z,15.20
2018-04-08T06:54:59.604Z,15.30
2018-04-08T06:56:02.944Z,15.50
2018-04-08T06:57:05.442Z,15.50
2018-04-08T06:58:07.923Z,15.60
2018-04-08T06:59:11.262Z,15.80
2018-04-08T07:00:13.863Z,15.70
2018-04-08T07:01:16.660Z,15.90
2018-04-08T07:02:19.994Z,16.00
2018-04-08T07:03:22.506Z,16.00
2018-04-08T07:04:24.999Z,16.00
2018-04-08T07:05:28.257Z,16.00
2018-04-08T07:06:30.779Z,16.00
2018-04-08T07:07:33.286Z,16.20
2018-04-08T07:08:35.802Z,16.20
2018-04-08T07:09:39.078Z,16.50
2018-04-08T07:10:42.346Z,16.80
2018-04-08T07:11:44.845Z,16.80
2018-04-08T07:12:48.135Z,17.10
2018-04-08T07:13:51.413Z,17.30
2018-04-08T07:14:54.673Z,17.80
2018-04-08T07:15:57.171Z,17.80
2018-04-08T07:17:00.431Z,18.20
2018-04-08T07:18:02.948Z,18.20
2018-04-08T07:19:05.468Z,18.50
2018-04-08T07:20:07.970Z,18.60
2018-04-08T07:21:11.322Z,18.70
2018-04-08T07:22:13.881Z,18.70
2018-04-08T07:23:16.397Z,18.50
2018-04-08T07:24:19.709Z,18.70
2018-04-08T07:25:22.223Z,18.60
2018-04-08T07:26:24.724Z,18.80
2018-04-08T07:27:28.014Z,18.90
2018-04-08T07:28:31.306Z,18.90
2018-04-08T07:29:33.873Z,18.90
2018-04-08T07:30:37.148Z,19.20
2018-04-08T07:31:39.837Z,19.20
2018-04-08T07:32:43.233Z,19.40
2018-04-08T07:33:45.704Z,19.30
2018-04-08T07:34:48.981Z,19.80
2018-04-08T07:35:51.495Z,19.70
2018-04-08T07:36:53.999Z,19.90
2018-04-08T07:37:56.542Z,19.90
2018-04-08T07:38:59.070Z,20.00
2018-04-08T07:40:01.609Z,20.20
2018-04-08T07:41:04.125Z,20.30
2018-04-08T07:42:06.670Z,20.40
2018-04-08T07:43:09.187Z,20.60
2018-04-08T07:44:11.805Z,20.60
2018-04-08T07:45:14.280Z,20.80
2018-04-08T07:46:17.823Z,20.80
2018-04-08T07:47:20.463Z,20.80
2018-04-08T07:48:23.745Z,20.80
2018-04-08T07:49:27.018Z,20.90
2018-04-08T07:50:30.289Z,20.80
2018-04-08T07:51:32.820Z,20.80
2018-04-08T07:52:35.317Z,20.80
2018-04-08T07:53:37.838Z,20.80
2018-04-08T07:54:41.197Z,20.90
2018-04-08T07:55:43.696Z,20.80
2018-04-08T07:56:46.986Z,20.50
2018-04-08T07:57:50.256Z,20.40
2018-04-08T07:58:52.771Z,20.30
2018-04-08T07:59:55.273Z,20.40
2018-04-08T08:00:57.817Z,20.40
2018-04-08T08:02:00.318Z,20.30
2018-04-08T08:03:02.845Z,20.10
2018-04-08T08:04:05.375Z,20.20
2018-04-08T08:05:07.914Z,20.20
2018-04-08T08:06:10.650Z,20.10
2018-04-08T08:07:13.940Z,20.30
2018-04-08T08:08:17.208Z,20.40
2018-04-08T08:09:21.235Z,20.70
2018-04-08T08:10:24.537Z,21.20
2018-04-08T08:11:27.030Z,21.20
2018-04-08T08:12:29.533Z,21.40
2018-04-08T08:13:32.055Z,21.80
2018-04-08T08:14:34.591Z,22.40
2018-04-08T08:15:37.116Z,22.80
2018-04-08T08:16:39.631Z,23.20
2018-04-08T08:17:42.145Z,23.70
2018-04-08T08:18:44.664Z,24.10
2018-04-08T08:19:47.187Z,24.50
2018-04-08T08:20:49.730Z,24.80
2018-04-08T08:21:53.008Z,25.10
2018-04-08T08:22:55.511Z,25.10
2018-04-08T08:23:58.005Z,25.30
2018-04-08T08:25:00.518Z,25.50
2018-04-08T08:26:03.021Z,25.60
2018-04-08T08:27:05.529Z,25.90
2018-04-08T08:28:08.035Z,26.10
2018-04-08T08:29:10.744Z,26.40
2018-04-08T08:30:13.339Z,26.40
2018-04-08T08:31:15.852Z,26.20
2018-04-08T08:32:18.363Z,26.20
2018-04-08T08:33:20.864Z,26.20
2018-04-08T08:34:23.366Z,26.20
2018-04-08T08:35:26.628Z,26.30
2018-04-08T08:36:29.178Z,26.20
2018-04-08T08:37:31.687Z,26.50
2018-04-08T08:38:34.197Z,26.60
2018-04-08T08:39:36.724Z,26.90
2018-04-08T08:40:39.234Z,27.00
2018-04-08T08:41:41.762Z,26.90
2018-04-08T08:42:44.281Z,26.90
2018-04-08T08:43:46.790Z,26.90
2018-04-08T08:44:49.300Z,26.70
2018-04-08T08:45:52.563Z,26.80
2018-04-08T08:46:55.086Z,26.80
2018-04-08T08:47:57.585Z,26.90
2018-04-08T08:49:00.087Z,26.60
2018-04-08T08:50:03.355Z,25.90
2018-04-08T08:51:05.865Z,25.90
2018-04-08T08:52:08.392Z,25.60
2018-04-08T08:53:11.077Z,25.50
2018-04-08T08:54:13.843Z,25.70
2018-04-08T08:55:16.360Z,25.80
2018-04-08T08:56:18.869Z,26.00
2018-04-08T08:57:22.168Z,25.80
2018-04-08T08:58:24.656Z,25.80
2018-04-08T08:59:27.176Z,25.90
2018-04-08T09:00:29.682Z,26.00
2018-04-08T09:01:32.971Z,26.20
2018-04-08T09:02:36.271Z,26.30
2018-04-08T09:03:39.732Z,26.40
2018-04-08T09:04:42.271Z,26.40
2018-04-08T09:05:44.815Z,26.30
2018-04-08T09:06:47.310Z,26.40
2018-04-08T09:07:50.599Z,26.70
2018-04-08T09:08:53.895Z,26.80
2018-04-08T09:09:57.179Z,26.70
2018-04-08T09:11:00.449Z,26.60
2018-04-08T09:12:03.738Z,26.40
2018-04-08T09:13:06.351Z,26.40
2018-04-08T09:14:08.861Z,26.50
2018-04-08T09:15:11.478Z,26.50
2018-04-08T09:16:14.788Z,26.70
2018-04-08T09:17:17.309Z,26.70
2018-04-08T09:18:19.853Z,26.70
2018-04-08T09:19:22.999Z,26.80
2018-04-08T09:22:15.949Z,26.40
2018-04-08T09:23:28.396Z,26.20
2018-04-08T09:24:46.651Z,26.20
2018-04-08T09:25:50.900Z,26.10
2018-04-08T09:26:53.429Z,26.10
2018-04-08T09:27:55.974Z,26.00
2018-04-08T09:28:58.487Z,25.90
2018-04-08T09:30:01.026Z,25.90
2018-04-08T09:31:03.547Z,25.80
2018-04-08T09:32:06.163Z,25.80
2018-04-08T09:33:08.734Z,25.80
2018-04-08T09:34:11.412Z,25.80
2018-04-08T09:35:13.977Z,25.70
2018-04-08T09:36:16.540Z,25.70
2018-04-08T09:37:19.023Z,25.70
2018-04-08T09:38:21.538Z,25.60
2018-04-08T09:39:24.052Z,25.60
2018-04-08T09:40:27.324Z,25.60
2018-04-08T09:41:29.860Z,25.60
2018-04-08T09:42:32.397Z,25.80
2018-04-08T09:43:35.183Z,25.80
2018-04-08T09:44:37.702Z,25.50
2018-04-08T09:45:41.003Z,25.70
2018-04-08T09:46:44.332Z,25.40
2018-04-08T09:47:46.857Z,25.40
2018-04-08T09:48:49.403Z,25.40
2018-04-08T09:49:51.896Z,25.60
2018-04-08T09:50:55.175Z,25.70
2018-04-08T09:51:57.707Z,25.70
2018-04-08T09:53:00.213Z,25.90
2018-04-08T09:54:02.782Z,26.10
2018-04-08T09:55:06.869Z,26.00
2018-04-08T09:56:09.374Z,26.00
2018-04-08T09:57:11.965Z,25.80
2018-04-08T09:58:30.995Z,26.10
2018-04-08T09:59:33.573Z,26.10
2018-04-08T10:00:39.656Z,26.20
2018-04-08T10:01:48.378Z,26.20
2018-04-08T10:02:56.915Z,26.20
2018-04-08T10:03:59.420Z,26.30
2018-04-08T10:05:02.238Z,25.90
2018-04-08T10:06:04.780Z,25.70
2018-04-08T10:07:07.346Z,25.60
2018-04-08T10:08:10.186Z,25.70
2018-04-08T10:09:13.251Z,25.60
2018-04-08T10:10:15.800Z,25.30
2018-04-08T10:11:19.105Z,25.50
2018-04-08T10:12:21.627Z,25.40
2018-04-08T10:13:24.172Z,25.60
2018-04-08T10:14:26.701Z,25.40
2018-04-08T10:15:29.981Z,25.60
2018-04-08T10:16:33.272Z,25.30
2018-04-08T10:17:35.791Z,25.30
2018-04-08T10:18:38.314Z,25.30
2018-04-08T10:19:41.625Z,25.50
2018-04-08T10:20:44.180Z,25.40
2018-04-08T10:21:48.133Z,25.30
2018-04-08T10:22:50.647Z,25.30
2018-04-08T10:23:53.920Z,25.50
2018-04-08T10:24:56.457Z,25.50
2018-04-08T10:25:58.964Z,25.60
2018-04-08T10:27:01.491Z,25.50
2018-04-08T10:28:04.014Z,25.40
2018-04-08T10:29:06.567Z,25.40
2018-04-08T10:30:09.061Z,25.30
2018-04-08T10:31:12.424Z,25.60
2018-04-08T10:32:14.973Z,25.50
2018-04-08T10:33:18.062Z,25.50
2018-04-08T10:34:21.048Z,25.50
2018-04-08T10:35:23.756Z,25.60
2018-04-08T10:36:26.601Z,25.70
2018-04-08T10:37:30.109Z,26.00
2018-04-08T10:38:33.471Z,26.10
2018-04-08T10:39:35.983Z,26.10
2018-04-08T10:40:38.589Z,26.20
2018-04-08T10:41:41.116Z,26.30
2018-04-08T10:42:45.433Z,26.20
2018-04-08T10:43:47.951Z,26.20
2018-04-08T10:44:50.459Z,26.10
2018-04-08T10:45:52.990Z,26.20
2018-04-08T10:46:55.506Z,26.30
2018-04-08T10:47:58.006Z,26.40
2018-04-08T10:49:01.414Z,26.40
2018-04-08T10:50:03.932Z,26.40
2018-04-08T10:51:06.450Z,26.30
2018-04-08T10:52:09.000Z,26.20
2018-04-08T10:53:12.157Z,26.10
2018-04-08T10:54:14.696Z,26.30
2018-04-08T10:55:18.732Z,26.40
2018-04-08T10:56:21.397Z,26.40
2018-04-08T10:57:23.922Z,26.60
2018-04-08T10:58:27.208Z,26.60
2018-04-08T10:59:30.542Z,26.40
2018-04-08T11:00:34.782Z,26.40
2018-04-08T11:01:37.332Z,26.50
2018-04-08T11:02:39.829Z,26.50
2018-04-08T11:03:42.398Z,26.60
2018-04-08T11:04:44.923Z,26.60
2018-04-08T11:05:47.440Z,26.70
2018-04-08T11:06:50.745Z,26.80
2018-04-08T11:07:54.013Z,27.00
2018-04-08T11:08:56.522Z,26.90
2018-04-08T11:09:59.049Z,27.00
2018-04-08T11:11:01.555Z,27.20
2018-04-08T11:12:04.877Z,27.50
2018-04-08T11:13:07.412Z,27.50
2018-04-08T11:14:10.752Z,27.80
2018-04-08T11:15:13.315Z,27.80
2018-04-08T11:16:15.986Z,28.00
2018-04-08T11:17:18.489Z,27.80
2018-04-08T11:18:21.769Z,27.50
2018-04-08T11:19:24.284Z,27.50
2018-04-08T11:20:27.567Z,27.10
2018-04-08T11:21:30.929Z,27.10
2018-04-08T11:22:33.442Z,27.00
2018-04-08T11:23:35.946Z,27.00
2018-04-08T11:24:38.445Z,26.80
2018-04-08T11:25:40.975Z,26.70
2018-04-08T11:26:43.528Z,26.80
2018-04-08T11:27:46.047Z,26.80
2018-04-08T11:28:48.628Z,26.70
2018-04-08T11:29:51.173Z,26.80
2018-04-08T11:30:53.666Z,26.90
2018-04-08T11:31:56.305Z,26.90
2018-04-08T11:32:58.835Z,27.10
2018-04-08T11:34:02.105Z,27.10
2018-04-08T11:35:04.600Z,27.00
2018-04-08T11:36:07.139Z,26.80
2018-04-08T11:37:09.767Z,26.80
2018-04-08T11:38:12.432Z,26.80
2018-04-08T11:39:14.940Z,26.80
2018-04-08T11:40:17.451Z,26.70
2018-04-08T11:41:20.720Z,26.60
2018-04-08T11:42:23.230Z,26.60
2018-04-08T11:43:25.761Z,26.50
2018-04-08T11:44:28.371Z,26.60
2018-04-08T11:45:30.886Z,26.70
2018-04-08T11:46:33.404Z,26.60
2018-04-08T11:47:35.951Z,26.60
2018-04-08T11:48:39.245Z,26.70
2018-04-08T11:49:42.518Z,26.60
2018-04-08T11:50:45.796Z,26.60
2018-04-08T11:51:48.420Z,26.60
2018-04-08T11:52:50.958Z,26.60
2018-04-08T11:53:53.448Z,26.60
2018-04-08T11:54:56.729Z,26.60
2018-04-08T11:55:59.998Z,26.60
2018-04-08T11:57:02.520Z,26.60
2018-04-08T11:58:05.079Z,26.60
2018-04-08T11:59:07.604Z,26.50
2018-04-08T12:00:10.300Z,26.40
2018-04-08T12:01:13.569Z,26.30
2018-04-08T12:02:16.084Z,26.30
2018-04-08T12:03:18.649Z,26.40
2018-04-08T12:04:21.196Z,26.60
2018-04-08T12:05:23.716Z,26.60
2018-04-08T12:06:26.223Z,26.80
2018-04-08T12:07:29.506Z,27.00
2018-04-08T12:08:32.021Z,26.90
2018-04-08T12:09:34.549Z,27.00
2018-04-08T12:10:37.052Z,27.10
2018-04-08T12:11:40.315Z,27.20
2018-04-08T12:12:42.830Z,27.20
2018-04-08T12:13:45.325Z,27.20
2018-04-08T12:14:47.853Z,26.90
2018-04-08T12:15:51.144Z,26.90
2018-04-08T12:16:54.428Z,27.00
2018-04-08T12:17:57.714Z,26.90
2018-04-08T12:19:00.233Z,26.90
2018-04-08T12:20:02.802Z,27.00
2018-04-08T12:21:05.323Z,26.90
2018-04-08T12:22:08.607Z,27.10
2018-04-08T12:23:11.894Z,27.10
2018-04-08T12:24:14.433Z,27.10
2018-04-08T12:25:17.941Z,27.00
2018-04-08T12:26:21.022Z,26.90
2018-04-08T12:27:23.551Z,26.80
2018-04-08T12:28:26.106Z,26.80
2018-04-08T12:29:28.628Z,26.80
2018-04-08T12:30:31.178Z,26.80
2018-04-08T12:31:33.666Z,26.80
2018-04-08T12:32:36.191Z,26.80
2018-04-08T12:33:38.693Z,26.80
2018-04-08T12:34:41.336Z,26.90
2018-04-08T12:35:43.853Z,26.90
2018-04-08T12:36:46.384Z,26.80
2018-04-08T12:37:48.897Z,27.00
2018-04-08T12:38:51.405Z,26.90
2018-04-08T12:39:54.682Z,26.70
2018-04-08T12:40:57.959Z,26.70
2018-04-08T12:42:00.489Z,26.70
2018-04-08T12:43:03.007Z,26.60
2018-04-08T12:44:05.518Z,26.60
2018-04-08T12:45:08.024Z,26.70
2018-04-08T12:46:10.551Z,26.80
2018-04-08T12:47:13.063Z,26.80
2018-04-08T12:48:15.577Z,26.90
2018-04-08T12:49:18.093Z,27.00
2018-04-08T12:50:20.625Z,27.00
2018-04-08T12:51:23.122Z,26.80
2018-04-08T12:52:25.647Z,26.70
2018-04-08T12:53:28.947Z,26.40
2018-04-08T12:54:31.471Z,26.40
2018-04-08T12:55:33.990Z,26.40
2018-04-08T12:56:37.289Z,26.30
2018-04-08T12:57:39.789Z,26.30
2018-04-08T12:58:42.303Z,26.30
2018-04-08T12:59:45.566Z,26.50
2018-04-08T13:00:48.093Z,26.50
2018-04-08T13:01:50.591Z,26.60
2018-04-08T13:02:53.125Z,26.60
2018-04-08T13:03:55.658Z,26.50
2018-04-08T13:04:58.181Z,26.60
2018-04-08T13:06:00.698Z,26.60
2018-04-08T13:07:04.020Z,26.90
2018-04-08T13:08:07.292Z,26.90
2018-04-08T13:09:10.634Z,27.00
2018-04-08T13:10:13.235Z,27.00
2018-04-08T13:11:15.775Z,26.90
2018-04-08T13:12:18.354Z,26.90
2018-04-08T13:13:20.874Z,27.00
2018-04-08T13:14:24.134Z,27.10
2018-04-08T13:15:26.633Z,27.10
2018-04-08T13:16:29.901Z,27.20
2018-04-08T13:17:32.415Z,27.20
2018-04-08T13:18:34.946Z,27.20
2018-04-08T13:19:37.458Z,27.20
2018-04-08T13:20:39.976Z,27.10
2018-04-08T13:21:42.511Z,27.00
2018-04-08T13:22:45.025Z,27.00
2018-04-08T13:23:47.634Z,26.80
2018-04-08T13:24:50.144Z,26.70
2018-04-08T13:25:52.656Z,26.60
2018-04-08T13:26:55.931Z,26.40
2018-04-08T13:27:58.464Z,26.40
2018-04-08T13:29:00.971Z,26.30
2018-04-08T13:30:04.296Z,26.30
2018-04-08T13:31:06.821Z,26.30
2018-04-08T13:32:09.343Z,26.40
2018-04-08T13:33:11.931Z,26.40
2018-04-08T13:34:14.439Z,26.50
2018-04-08T13:35:16.935Z,26.40
2018-04-08T13:36:20.215Z,26.40
2018-04-08T13:37:23.530Z,26.30
2018-04-08T13:38:26.045Z,26.30
2018-04-08T13:39:30.215Z,26.20
2018-04-08T13:40:32.717Z,26.20
2018-04-08T13:41:35.222Z,26.20
2018-04-08T13:42:38.530Z,26.10
2018-04-08T13:43:41.029Z,26.10